createdAt,value
2022-12-06T00:00:04.884Z,11.38
2022-12-06T00:03:05.057Z,14.25
2022-12-06T00:05:41.888Z,12.60
2022-12-06T00:08:18.693Z,12.10
2022-12-06T00:10:51.545Z,13.95
2022-12-06T00:13:24.092Z,14.05
2022-12-06T00:15:59.853Z,13.68
2022-12-06T00:18:36.444Z,14.57
2022-12-06T00:21:11.238Z,16.35
2022-12-06T00:23:44.948Z,19.13
2022-12-06T00:26:18.020Z,27.25
2022-12-06T00:28:52.860Z,17.30
2022-12-06T00:31:27.136Z,17.35
2022-12-06T00:33:59.738Z,13.60
2022-12-06T00:36:33.805Z,16.60
2022-12-06T00:39:07.851Z,15.07
2022-12-06T00:41:41.325Z,15.18
2022-12-06T00:44:14.020Z,13.82
2022-12-06T00:46:47.115Z,11.50
2022-12-06T00:49:19.699Z,10.82
2022-12-06T00:51:52.684Z,12.52
2022-12-06T00:54:25.285Z,12.50
2022-12-06T00:56:58.362Z,11.15
2022-12-06T00:59:30.939Z,12.23
2022-12-06T01:02:03.825Z,11.38
2022-12-06T01:04:36.893Z,9.40
2022-12-06T01:07:09.723Z,11.00
2022-12-06T01:09:42.847Z,10.90
2022-12-06T01:12:15.764Z,11.82
2022-12-06T01:14:48.241Z,11.35
2022-12-06T01:17:21.209Z,11.95
2022-12-06T01:19:53.899Z,11.70
2022-12-06T01:22:27.211Z,11.43
2022-12-06T01:24:59.827Z,10.70
2022-12-06T01:27:32.770Z,11.57
2022-12-06T01:30:06.227Z,11.02
2022-12-06T01:32:39.176Z,13.77
2022-12-06T01:35:11.621Z,11.68
2022-12-06T01:37:44.517Z,13.27
2022-12-06T01:40:17.168Z,12.27
2022-12-06T01:42:50.063Z,11.60
2022-12-06T01:45:22.622Z,11.52
2022-12-06T01:47:55.499Z,11.52
2022-12-06T01:50:29.921Z,13.30
2022-12-06T01:53:08.487Z,13.45
2022-12-06T01:55:41.460Z,15.20
2022-12-06T01:58:18.289Z,13.27
2022-12-06T02:00:51.049Z,13.80
2022-12-06T02:03:26.127Z,14.35
2022-12-06T02:05:59.763Z,13.35
2022-12-06T02:08:33.119Z,11.88
2022-12-06T02:11:06.395Z,12.02
2022-12-06T02:13:39.831Z,12.75
2022-12-06T02:16:21.554Z,10.93
2022-12-06T02:19:13.312Z,12.05
2022-12-06T02:21:54.762Z,13.88
2022-12-06T02:27:27.452Z,12.05
2022-12-06T02:30:11.271Z,12.32
2022-12-06T02:33:16.209Z,12.50
2022-12-06T02:36:15.129Z,12.15
2022-12-06T02:38:49.758Z,11.63
2022-12-06T02:41:43.809Z,12.45
2022-12-06T02:44:36.655Z,11.10
2022-12-06T02:47:12.196Z,11.85
2022-12-06T02:49:46.942Z,11.13
2022-12-06T02:52:20.739Z,10.55
2022-12-06T02:54:55.871Z,11.57
2022-12-06T02:57:48.051Z,10.52
2022-12-06T03:00:29.983Z,10.60
2022-12-06T03:03:21.398Z,11.00
2022-12-06T03:06:03.622Z,11.73
2022-12-06T03:08:48.664Z,9.98
2022-12-06T03:11:21.286Z,11.98
2022-12-06T03:13:54.123Z,10.82
2022-12-06T03:16:31.628Z,12.55
2022-12-06T03:19:13.680Z,13.77
2022-12-06T03:21:46.189Z,11.55
2022-12-06T03:24:19.799Z,13.55
2022-12-06T03:26:53.144Z,12.05
2022-12-06T03:29:28.395Z,11.38
2022-12-06T03:32:03.330Z,13.18
2022-12-06T03:34:39.571Z,12.93
2022-12-06T03:37:14.671Z,11.88
2022-12-06T03:39:50.355Z,13.32
2022-12-06T03:42:22.843Z,12.20
2022-12-06T03:44:55.969Z,13.55
2022-12-06T03:47:41.015Z,12.90
2022-12-06T03:50:23.345Z,11.88
2022-12-06T03:52:56.158Z,13.45
2022-12-06T03:55:29.019Z,14.45
2022-12-06T03:58:01.607Z,13.45
2022-12-06T04:00:34.511Z,12.75
2022-12-06T04:03:07.033Z,15.27
2022-12-06T04:05:40.445Z,12.90
2022-12-06T04:08:12.998Z,13.40
2022-12-06T04:10:45.917Z,12.90
2022-12-06T04:13:19.842Z,12.38
2022-12-06T04:15:55.779Z,13.52
2022-12-06T04:18:28.678Z,15.18
2022-12-06T04:21:21.447Z,11.45
2022-12-06T04:23:54.415Z,13.10
2022-12-06T04:26:27.451Z,12.77
2022-12-06T04:29:19.297Z,12.95
2022-12-06T04:32:10.553Z,15.57
2022-12-06T04:35:01.290Z,14.27
2022-12-06T04:37:52.618Z,14.45
2022-12-06T04:40:25.113Z,14.02
2022-12-06T04:43:16.324Z,14.10
2022-12-06T04:45:48.841Z,12.20
2022-12-06T04:48:22.000Z,15.45
2022-12-06T04:50:54.530Z,14.32
2022-12-06T04:53:27.440Z,14.38
2022-12-06T04:55:59.960Z,13.32
2022-12-06T04:58:32.808Z,13.93
2022-12-06T05:01:05.877Z,16.33
2022-12-06T05:03:43.992Z,13.88
2022-12-06T05:06:17.074Z,16.40
2022-12-06T05:08:50.043Z,15.20
2022-12-06T05:11:22.614Z,14.75
2022-12-06T05:13:55.640Z,14.55
2022-12-06T05:16:28.241Z,15.85
2022-12-06T05:19:01.285Z,14.50
2022-12-06T05:21:33.855Z,14.90
2022-12-06T05:24:07.189Z,13.88
2022-12-06T05:26:39.700Z,14.63
2022-12-06T05:29:12.668Z,18.67
2022-12-06T05:31:45.245Z,17.27
2022-12-06T05:34:18.103Z,15.98
2022-12-06T05:36:50.674Z,16.20
2022-12-06T05:39:23.696Z,16.02
2022-12-06T05:41:56.254Z,15.18
2022-12-06T05:44:29.164Z,16.15
2022-12-06T05:47:01.879Z,16.38
2022-12-06T05:49:34.897Z,20.75
2022-12-06T05:52:10.147Z,18.83
2022-12-06T05:54:43.078Z,16.90
2022-12-06T05:57:15.708Z,16.58
2022-12-06T05:59:48.640Z,17.50
2022-12-06T06:02:21.427Z,15.43
2022-12-06T06:04:54.524Z,15.80
2022-12-06T06:07:26.957Z,15.65
2022-12-06T06:10:00.257Z,11.00
2022-12-06T06:12:33.140Z,12.52
2022-12-06T06:15:08.031Z,11.23
2022-12-06T06:17:40.952Z,11.43
2022-12-06T06:20:14.271Z,12.43
2022-12-06T06:22:46.833Z,9.52
2022-12-06T06:25:19.737Z,9.88
2022-12-06T06:27:52.674Z,11.10
2022-12-06T06:30:25.596Z,9.90
2022-12-06T06:32:58.240Z,12.68
2022-12-06T06:35:31.363Z,10.63
2022-12-06T06:38:04.107Z,12.30
2022-12-06T06:40:37.123Z,12.45
2022-12-06T06:43:18.944Z,12.65
2022-12-06T06:45:58.999Z,13.90
2022-12-06T06:48:32.683Z,11.48
2022-12-06T06:51:06.932Z,12.52
2022-12-06T06:53:39.759Z,11.52
2022-12-06T06:56:12.952Z,11.38
2022-12-06T06:58:46.111Z,11.43
2022-12-06T07:01:20.263Z,9.02
2022-12-06T07:03:52.845Z,11.02
2022-12-06T07:06:26.287Z,11.77
2022-12-06T07:08:58.932Z,12.45
2022-12-06T07:11:31.863Z,9.70
2022-12-06T07:14:04.440Z,8.52
2022-12-06T07:16:37.934Z,8.88
2022-12-06T07:19:10.614Z,8.90
2022-12-06T07:21:43.499Z,9.38
2022-12-06T07:24:16.007Z,9.10
2022-12-06T07:26:48.976Z,10.70
2022-12-06T07:29:21.587Z,9.98
2022-12-06T07:31:54.495Z,10.63
2022-12-06T07:34:27.031Z,9.25
2022-12-06T07:36:59.936Z,8.98
2022-12-06T07:39:32.768Z,8.77
2022-12-06T07:42:24.292Z,10.05
2022-12-06T07:45:02.557Z,9.90
2022-12-06T07:47:36.967Z,9.20
2022-12-06T07:50:17.358Z,9.13
2022-12-06T07:52:50.897Z,10.88
2022-12-06T07:55:23.415Z,10.25
2022-12-06T07:57:56.417Z,9.52
2022-12-06T08:00:28.926Z,9.85
2022-12-06T08:03:01.834Z,8.52
2022-12-06T08:05:34.387Z,9.57
2022-12-06T08:08:07.604Z,7.00
2022-12-06T08:10:40.199Z,8.85
2022-12-06T08:13:13.135Z,9.00
2022-12-06T08:15:45.706Z,8.63
2022-12-06T08:18:19.261Z,9.18
2022-12-06T08:20:53.570Z,8.48
2022-12-06T08:23:32.250Z,8.43
2022-12-06T08:26:07.827Z,7.90
2022-12-06T08:28:40.796Z,7.47
2022-12-06T08:31:17.976Z,9.00
2022-12-06T08:33:51.004Z,7.38
2022-12-06T08:36:24.640Z,8.18
2022-12-06T08:38:59.234Z,9.38
2022-12-06T08:41:50.241Z,9.50
2022-12-06T08:44:23.162Z,8.73
2022-12-06T08:46:56.366Z,7.68
2022-12-06T08:49:29.888Z,7.00
2022-12-06T08:52:02.499Z,7.38
2022-12-06T08:54:36.720Z,6.95
2022-12-06T08:57:19.833Z,8.07
2022-12-06T09:00:00.123Z,8.18
2022-12-06T09:02:32.839Z,8.85
2022-12-06T09:05:06.124Z,6.22
2022-12-06T09:07:38.688Z,7.43
2022-12-06T09:10:11.822Z,7.60
2022-12-06T09:12:44.323Z,8.35
2022-12-06T09:15:17.281Z,7.05
2022-12-06T09:17:49.900Z,7.00
2022-12-06T09:20:22.998Z,7.88
2022-12-06T09:22:55.647Z,7.57
2022-12-06T09:25:28.483Z,6.38
2022-12-06T09:28:01.102Z,6.75
2022-12-06T09:30:34.055Z,6.63
2022-12-06T09:33:06.589Z,7.43
2022-12-06T09:35:39.506Z,6.45
2022-12-06T09:38:12.193Z,7.68
2022-12-06T09:40:45.360Z,7.13
2022-12-06T09:43:17.920Z,5.80
2022-12-06T09:46:01.889Z,6.95
2022-12-06T09:48:49.259Z,5.95
2022-12-06T09:51:41.147Z,6.32
2022-12-06T09:54:51.143Z,5.55
2022-12-06T09:57:31.619Z,6.53
2022-12-06T10:00:11.270Z,4.72
2022-12-06T10:03:04.195Z,7.50
2022-12-06T10:05:55.724Z,6.03
2022-12-06T10:08:31.471Z,5.72
2022-12-06T10:11:12.834Z,6.63
2022-12-06T10:14:04.397Z,6.88
2022-12-06T10:16:54.985Z,6.63
2022-12-06T10:19:40.833Z,6.80
2022-12-06T10:22:20.568Z,8.27
2022-12-06T10:24:56.155Z,7.78
2022-12-06T10:27:39.513Z,5.82
2022-12-06T10:30:13.434Z,5.72
2022-12-06T10:32:51.845Z,6.22
2022-12-06T10:35:41.919Z,6.72
2022-12-06T10:38:25.959Z,4.22
2022-12-06T10:40:59.386Z,6.05
2022-12-06T10:43:50.534Z,5.28
2022-12-06T10:47:05.411Z,5.97
2022-12-06T10:50:03.006Z,5.28
2022-12-06T10:52:39.020Z,5.70
2022-12-06T10:55:11.732Z,6.10
2022-12-06T10:57:53.899Z,5.72
2022-12-06T11:00:29.636Z,6.00
2022-12-06T11:03:18.088Z,5.80
2022-12-06T11:05:53.807Z,7.15
2022-12-06T11:08:37.837Z,6.63
2022-12-06T11:11:16.069Z,6.88
2022-12-06T11:13:49.041Z,7.07
2022-12-06T11:16:21.639Z,6.43
2022-12-06T11:18:57.282Z,6.55
2022-12-06T11:21:46.716Z,5.80
2022-12-06T11:24:35.733Z,5.63
2022-12-06T11:27:35.083Z,5.32
2022-12-06T11:30:20.008Z,4.63
2022-12-06T11:32:53.387Z,5.32
2022-12-06T11:35:27.868Z,4.82
2022-12-06T11:38:05.757Z,5.68
2022-12-06T11:40:42.781Z,4.70
2022-12-06T11:43:20.518Z,5.20
2022-12-06T11:45:54.061Z,4.85
2022-12-06T11:48:28.963Z,6.05
2022-12-06T11:51:02.273Z,4.20
2022-12-06T11:53:41.028Z,5.18
2022-12-06T11:56:30.576Z,3.80
2022-12-06T11:59:03.875Z,4.20
2022-12-06T12:01:38.269Z,3.25
2022-12-06T12:04:43.179Z,4.80
2022-12-06T12:07:17.764Z,3.20
2022-12-06T12:09:53.371Z,4.75
2022-12-06T12:12:50.547Z,5.25
2022-12-06T12:15:23.449Z,4.80
2022-12-06T12:17:58.767Z,3.55
2022-12-06T12:20:34.261Z,4.72
2022-12-06T12:23:14.955Z,3.83
2022-12-06T12:26:05.162Z,3.88
2022-12-06T12:28:41.065Z,4.95
2022-12-06T12:31:21.064Z,3.85
2022-12-06T12:34:13.439Z,5.30
2022-12-06T12:39:25.732Z,4.25
2022-12-06T12:42:02.971Z,4.30
2022-12-06T12:44:39.729Z,4.82
2022-12-06T12:47:21.692Z,4.13
2022-12-06T12:50:00.724Z,4.45
2022-12-06T12:52:37.428Z,4.13
2022-12-06T12:55:16.656Z,3.60
2022-12-06T12:57:53.664Z,4.15
2022-12-06T13:00:30.422Z,3.70
2022-12-06T13:03:14.196Z,3.53
2022-12-06T13:05:59.083Z,3.20
2022-12-06T13:08:35.294Z,3.47
2022-12-06T13:11:09.111Z,3.88
2022-12-06T13:13:48.071Z,3.25
2022-12-06T13:16:28.034Z,4.05
2022-12-06T13:19:01.875Z,3.78
2022-12-06T13:21:34.707Z,3.58
2022-12-06T13:24:10.268Z,3.63
2022-12-06T13:26:46.196Z,4.35
2022-12-06T13:29:18.844Z,3.55
2022-12-06T13:31:52.781Z,5.50
2022-12-06T13:35:00.833Z,4.07
2022-12-06T13:37:35.995Z,3.47
2022-12-06T13:40:31.513Z,2.63
2022-12-06T13:43:07.040Z,3.55
2022-12-06T13:45:45.651Z,4.38
2022-12-06T13:48:24.993Z,3.75
2022-12-06T13:50:57.760Z,3.00
2022-12-06T13:53:34.303Z,3.15
2022-12-06T13:56:25.504Z,4.13
2022-12-06T13:58:59.695Z,3.22
2022-12-06T14:01:45.557Z,4.03
2022-12-06T14:04:24.610Z,3.90
2022-12-06T14:07:00.586Z,3.85
2022-12-06T14:09:42.107Z,3.38
2022-12-06T14:12:19.861Z,4.07
2022-12-06T14:15:00.143Z,3.42
2022-12-06T14:18:01.554Z,2.60
2022-12-06T14:20:31.885Z,3.63
2022-12-06T14:23:21.956Z,2.70
2022-12-06T14:26:13.561Z,3.75
2022-12-06T14:28:46.802Z,4.00
2022-12-06T14:31:22.326Z,3.47
2022-12-06T14:33:55.744Z,3.33
2022-12-06T14:36:28.849Z,3.25
2022-12-06T14:39:12.922Z,3.92
2022-12-06T14:42:14.085Z,3.83
2022-12-06T14:44:51.536Z,4.45
2022-12-06T14:47:24.588Z,3.08
2022-12-06T14:50:17.283Z,3.55
2022-12-06T14:52:59.080Z,2.50
2022-12-06T14:55:33.875Z,3.63
2022-12-06T14:58:16.945Z,3.17
2022-12-06T15:00:56.766Z,3.47
2022-12-06T15:03:32.477Z,4.22
2022-12-06T15:06:13.702Z,5.50
2022-12-06T15:08:55.301Z,4.63
2022-12-06T15:11:54.260Z,5.30
2022-12-06T15:14:47.132Z,4.85
2022-12-06T15:17:22.042Z,4.47
2022-12-06T15:19:55.028Z,5.57
2022-12-06T15:22:29.356Z,4.47
2022-12-06T15:25:04.025Z,5.25
2022-12-06T15:27:37.152Z,4.35
2022-12-06T15:30:12.995Z,4.65
2022-12-06T15:32:45.622Z,6.88
2022-12-06T15:35:18.952Z,5.57
2022-12-06T15:37:51.713Z,4.95
2022-12-06T15:40:24.925Z,8.07
2022-12-06T15:43:02.166Z,8.18
2022-12-06T15:45:35.625Z,11.43
2022-12-06T15:48:09.247Z,14.65
2022-12-06T15:50:42.311Z,15.52
2022-12-06T15:53:19.611Z,17.52
2022-12-06T15:55:53.021Z,13.75
2022-12-06T15:58:26.522Z,13.75
2022-12-06T16:01:00.778Z,13.55
2022-12-06T16:03:33.499Z,8.77
2022-12-06T16:06:10.688Z,10.07
2022-12-06T16:08:43.695Z,6.10
2022-12-06T16:11:17.795Z,7.30
2022-12-06T16:13:51.097Z,8.75
2022-12-06T16:16:24.326Z,8.82
2022-12-06T16:18:57.067Z,9.48
2022-12-06T16:21:32.015Z,9.35
2022-12-06T16:24:14.212Z,10.43
2022-12-06T16:26:48.289Z,6.13
2022-12-06T16:29:25.406Z,7.90
2022-12-06T16:31:58.791Z,5.95
2022-12-06T16:34:31.483Z,4.57
2022-12-06T16:37:06.834Z,5.45
2022-12-06T16:39:39.807Z,10.57
2022-12-06T16:42:12.798Z,7.13
2022-12-06T16:44:54.099Z,6.70
2022-12-06T16:49:58.217Z,10.35
2022-12-06T16:52:31.174Z,9.73
2022-12-06T16:55:04.307Z,6.72
2022-12-06T16:57:40.666Z,5.75
2022-12-06T17:00:14.308Z,7.88
2022-12-06T17:02:47.372Z,7.68
2022-12-06T17:05:26.113Z,8.93
2022-12-06T17:08:02.300Z,13.13
2022-12-06T17:10:35.020Z,10.00
2022-12-06T17:13:08.164Z,8.20
2022-12-06T17:15:41.236Z,9.98
2022-12-06T17:18:14.228Z,8.07
2022-12-06T17:20:46.745Z,7.90
2022-12-06T17:23:19.695Z,11.02
2022-12-06T17:25:58.123Z,9.80
2022-12-06T17:28:31.161Z,7.32
2022-12-06T17:31:07.413Z,9.65
2022-12-06T17:33:40.448Z,6.85
2022-12-06T17:36:13.422Z,8.02
2022-12-06T17:38:46.515Z,10.05
2022-12-06T17:41:55.701Z,12.07
2022-12-06T17:44:28.729Z,7.07
2022-12-06T17:47:01.672Z,6.38
2022-12-06T17:49:36.983Z,7.15
2022-12-06T17:52:12.764Z,7.45
2022-12-06T17:54:45.904Z,8.43
2022-12-06T17:57:18.791Z,9.30
2022-12-06T17:59:51.920Z,6.65
2022-12-06T18:02:26.094Z,8.55
2022-12-06T18:05:00.765Z,5.93
2022-12-06T18:07:33.780Z,5.43
2022-12-06T18:10:07.272Z,6.57
2022-12-06T18:12:39.780Z,5.28
2022-12-06T18:15:32.603Z,6.05
2022-12-06T18:18:05.455Z,5.03
2022-12-06T18:20:38.379Z,6.65
2022-12-06T18:23:10.992Z,7.28
2022-12-06T18:25:44.216Z,6.43
2022-12-06T18:28:16.790Z,5.68
2022-12-06T18:30:50.044Z,6.97
2022-12-06T18:33:25.398Z,5.47
2022-12-06T18:36:02.712Z,10.43
2022-12-06T18:38:35.906Z,6.07
2022-12-06T18:41:09.112Z,7.78
2022-12-06T18:43:42.094Z,6.22
2022-12-06T18:46:16.990Z,6.90
2022-12-06T18:48:51.050Z,5.78
2022-12-06T18:51:25.071Z,5.15
2022-12-06T18:53:58.622Z,7.05
2022-12-06T18:56:32.045Z,5.82
2022-12-06T18:59:07.539Z,6.55
2022-12-06T19:01:41.199Z,7.60
2022-12-06T19:04:15.069Z,6.25
2022-12-06T19:06:48.113Z,6.70
2022-12-06T19:09:22.691Z,5.68
2022-12-06T19:11:55.868Z,6.05
2022-12-06T19:14:28.512Z,7.18
2022-12-06T19:17:01.565Z,7.40
2022-12-06T19:19:35.445Z,6.05
2022-12-06T19:22:09.148Z,6.28
2022-12-06T19:24:41.813Z,5.53
2022-12-06T19:27:17.459Z,6.05
2022-12-06T19:29:52.538Z,8.57
2022-12-06T19:32:25.443Z,5.63
2022-12-06T19:35:01.476Z,5.28
2022-12-06T19:37:38.154Z,6.82
2022-12-06T19:40:11.503Z,6.63
2022-12-06T19:43:02.721Z,6.78
2022-12-06T19:45:35.209Z,4.68
2022-12-06T19:48:08.255Z,7.25
2022-12-06T19:50:40.796Z,8.25
2022-12-06T19:53:13.633Z,5.25
2022-12-06T19:55:46.464Z,5.43
2022-12-06T19:58:20.263Z,4.80
2022-12-06T20:00:52.873Z,4.60
2022-12-06T20:03:26.159Z,6.38
2022-12-06T20:06:06.033Z,5.18
2022-12-06T20:08:39.052Z,6.93
2022-12-06T20:11:30.756Z,8.43
2022-12-06T20:14:04.941Z,7.85
2022-12-06T20:16:38.234Z,14.00
2022-12-06T20:19:12.276Z,23.17
2022-12-06T20:21:46.070Z,22.50
2022-12-06T20:24:20.511Z,22.02
2022-12-06T20:26:53.930Z,15.25
2022-12-06T20:29:27.468Z,11.88
2022-12-06T20:32:00.375Z,10.52
2022-12-06T20:34:35.179Z,10.43
2022-12-06T20:37:08.457Z,5.93
2022-12-06T20:39:41.465Z,6.15
2022-12-06T20:42:14.000Z,6.38
2022-12-06T20:44:50.108Z,8.93
2022-12-06T20:47:22.704Z,9.70
2022-12-06T20:49:56.507Z,8.02
2022-12-06T20:52:29.003Z,6.22
2022-12-06T20:55:01.865Z,5.28
2022-12-06T20:57:34.410Z,5.13
2022-12-06T21:00:08.139Z,4.78
2022-12-06T21:02:40.876Z,4.10
2022-12-06T21:05:14.860Z,5.38
2022-12-06T21:07:47.545Z,4.32
2022-12-06T21:10:20.525Z,5.05
2022-12-06T21:12:53.135Z,6.32
2022-12-06T21:15:26.040Z,5.55
2022-12-06T21:17:58.669Z,5.85
2022-12-06T21:20:31.526Z,4.22
2022-12-06T21:23:03.992Z,6.10
2022-12-06T21:25:37.767Z,5.70
2022-12-06T21:28:10.539Z,4.60
2022-12-06T21:30:49.152Z,5.65
2022-12-06T21:33:22.702Z,5.65
2022-12-06T21:35:55.552Z,3.53
2022-12-06T21:38:29.837Z,4.50
2022-12-06T21:41:07.369Z,4.38
2022-12-06T21:43:40.257Z,4.72
2022-12-06T21:46:22.902Z,5.57
2022-12-06T21:48:57.496Z,4.32
2022-12-06T21:51:31.680Z,5.82
2022-12-06T21:54:04.273Z,5.13
2022-12-06T21:56:38.543Z,4.68
2022-12-06T21:59:11.223Z,5.07
2022-12-06T22:01:45.020Z,5.43
2022-12-06T22:04:17.568Z,5.65
2022-12-06T22:06:50.456Z,7.20
2022-12-06T22:09:23.026Z,7.15
2022-12-06T22:11:56.081Z,6.20
2022-12-06T22:14:28.889Z,5.43
2022-12-06T22:17:01.769Z,5.13
2022-12-06T22:19:34.356Z,4.43
2022-12-06T22:22:07.272Z,4.88
2022-12-06T22:24:39.723Z,4.00
2022-12-06T22:27:12.625Z,6.38
2022-12-06T22:29:45.176Z,4.57
2022-12-06T22:32:18.015Z,5.07
2022-12-06T22:34:50.642Z,5.18
2022-12-06T22:37:28.353Z,4.53
2022-12-06T22:40:01.522Z,4.20
2022-12-06T22:42:35.260Z,4.25
2022-12-06T22:45:07.975Z,4.80
2022-12-06T22:47:41.105Z,4.25
2022-12-06T22:50:13.918Z,4.32
2022-12-06T22:52:46.826Z,4.90
2022-12-06T22:55:19.345Z,4.53
2022-12-06T22:57:52.333Z,8.07
2022-12-06T23:00:24.802Z,12.75
2022-12-06T23:02:59.206Z,12.45
2022-12-06T23:05:31.750Z,13.93
2022-12-06T23:08:04.937Z,8.20
2022-12-06T23:10:37.657Z,6.40
2022-12-06T23:13:10.585Z,5.60
2022-12-06T23:15:43.084Z,5.40
2022-12-06T23:18:15.983Z,5.95
2022-12-06T23:20:48.464Z,5.35
2022-12-06T23:23:21.404Z,4.18
2022-12-06T23:25:53.954Z,5.60
2022-12-06T23:28:26.975Z,5.60
2022-12-06T23:31:03.671Z,4.95
2022-12-06T23:33:36.540Z,6.10
2022-12-06T23:36:11.197Z,4.88
2022-12-06T23:38:44.337Z,5.32
